sensor_id;sensor_type;location;lat;lon;timestamp;noise_LAeq;noise_LA_min;noise_LA_max;noise_LA01;noise_LA95
81493;Laerm;70900;51.798;10.954;2024-02-21T00:00:49;37.75;32.41;44.91;;
81493;Laerm;70900;51.798;10.954;2024-02-21T00:03:15;36.06;30.59;49.11;;
81493;Laerm;70900;51.798;10.954;2024-02-21T00:05:40;35.62;30.17;50.06;;
81493;Laerm;70900;51.798;10.954;2024-02-21T00:08:05;37.31;29.33;47.54;;
81493;Laerm;70900;51.798;10.954;2024-02-21T00:10:31;35.33;29.61;43.82;;
81493;Laerm;70900;51.798;10.954;2024-02-21T00:13:00;35.13;30.11;42.31;;
81493;Laerm;70900;51.798;10.954;2024-02-21T00:15:26;31.91;26.74;44.77;;
81493;Laerm;70900;51.798;10.954;2024-02-21T00:17:51;35.61;29.18;46.08;;
81493;Laerm;70900;51.798;10.954;2024-02-21T00:20:17;37.93;30.47;47.25;;
81493;Laerm;70900;51.798;10.954;2024-02-21T00:22:43;34.74;28.24;45.55;;
81493;Laerm;70900;51.798;10.954;2024-02-21T00:25:08;31.57;27.10;39.92;;
81493;Laerm;70900;51.798;10.954;2024-02-21T00:27:33;33.01;27.07;42.46;;
81493;Laerm;70900;51.798;10.954;2024-02-21T00:29:59;34.11;27.97;46.85;;
81493;Laerm;70900;51.798;10.954;2024-02-21T00:32:24;36.40;27.73;49.84;;
81493;Laerm;70900;51.798;10.954;2024-02-21T00:34:49;33.95;28.26;45.93;;
81493;Laerm;70900;51.798;10.954;2024-02-21T00:37:15;38.43;29.10;52.33;;
81493;Laerm;70900;51.798;10.954;2024-02-21T00:39:40;38.24;28.80;50.37;;
81493;Laerm;70900;51.798;10.954;2024-02-21T00:42:05;31.13;28.14;34.41;;
81493;Laerm;70900;51.798;10.954;2024-02-21T00:44:32;33.70;27.73;47.33;;
81493;Laerm;70900;51.798;10.954;2024-02-21T00:46:57;36.87;29.87;49.62;;
81493;Laerm;70900;51.798;10.954;2024-02-21T00:49:23;39.97;31.78;49.12;;
81493;Laerm;70900;51.798;10.954;2024-02-21T00:51:48;33.67;28.78;44.80;;
81493;Laerm;70900;51.798;10.954;2024-02-21T00:54:13;36.92;30.28;48.74;;
81493;Laerm;70900;51.798;10.954;2024-02-21T00:56:39;37.77;32.56;51.28;;
81493;Laerm;70900;51.798;10.954;2024-02-21T00:59:04;39.67;29.85;57.03;;
81493;Laerm;70900;51.798;10.954;2024-02-21T01:01:29;42.74;36.39;52.00;;
81493;Laerm;70900;51.798;10.954;2024-02-21T01:03:55;41.23;36.71;49.59;;
81493;Laerm;70900;51.798;10.954;2024-02-21T01:06:20;43.85;38.07;52.92;;
81493;Laerm;70900;51.798;10.954;2024-02-21T01:08:49;45.46;38.40;57.17;;
81493;Laerm;70900;51.798;10.954;2024-02-21T01:11:15;45.50;38.42;54.93;;
81493;Laerm;70900;51.798;10.954;2024-02-21T01:13:40;45.73;39.18;58.18;;
81493;Laerm;70900;51.798;10.954;2024-02-21T01:16:06;42.14;34.24;49.20;;
81493;Laerm;70900;51.798;10.954;2024-02-21T01:18:32;36.54;30.81;43.36;;
81493;Laerm;70900;51.798;10.954;2024-02-21T01:20:57;33.05;28.25;45.50;;
81493;Laerm;70900;51.798;10.954;2024-02-21T01:23:23;35.76;30.96;48.28;;
81493;Laerm;70900;51.798;10.954;2024-02-21T01:25:48;34.51;28.54;47.99;;
81493;Laerm;70900;51.798;10.954;2024-02-21T01:28:13;36.30;30.67;46.85;;
81493;Laerm;70900;51.798;10.954;2024-02-21T01:30:39;32.05;26.85;44.58;;
81493;Laerm;70900;51.798;10.954;2024-02-21T01:33:04;31.48;26.10;40.39;;
81493;Laerm;70900;51.798;10.954;2024-02-21T01:35:29;30.36;26.66;36.78;;
81493;Laerm;70900;51.798;10.954;2024-02-21T01:37:55;30.99;25.60;53.20;;
81493;Laerm;70900;51.798;10.954;2024-02-21T01:40:20;26.57;24.27;33.90;;
81493;Laerm;70900;51.798;10.954;2024-02-21T01:42:45;29.90;25.22;38.40;;
81493;Laerm;70900;51.798;10.954;2024-02-21T01:45:13;28.94;25.67;32.49;;
81493;Laerm;70900;51.798;10.954;2024-02-21T01:47:38;29.48;25.98;44.08;;
81493;Laerm;70900;51.798;10.954;2024-02-21T01:50:04;28.79;24.95;38.18;;
81493;Laerm;70900;51.798;10.954;2024-02-21T01:52:29;30.95;25.60;44.82;;
81493;Laerm;70900;51.798;10.954;2024-02-21T01:54:56;29.43;25.38;34.70;;
81493;Laerm;70900;51.798;10.954;2024-02-21T01:57:22;30.55;24.36;52.62;;
81493;Laerm;70900;51.798;10.954;2024-02-21T01:59:48;31.61;25.29;38.54;;
81493;Laerm;70900;51.798;10.954;2024-02-21T02:02:13;31.71;26.09;42.20;;
81493;Laerm;70900;51.798;10.954;2024-02-21T02:04:39;30.99;27.35;39.54;;
81493;Laerm;70900;51.798;10.954;2024-02-21T02:07:05;29.17;25.34;43.17;;
81493;Laerm;70900;51.798;10.954;2024-02-21T02:09:31;35.59;25.57;59.88;;
81493;Laerm;70900;51.798;10.954;2024-02-21T02:11:57;30.72;24.53;50.05;;
81493;Laerm;70900;51.798;10.954;2024-02-21T02:14:23;31.81;26.53;41.14;;
81493;Laerm;70900;51.798;10.954;2024-02-21T02:16:49;31.67;25.63;39.33;;
81493;Laerm;70900;51.798;10.954;2024-02-21T02:19:14;34.41;26.10;45.37;;
81493;Laerm;70900;51.798;10.954;2024-02-21T02:21:42;32.85;24.70;44.87;;
81493;Laerm;70900;51.798;10.954;2024-02-21T02:24:10;30.19;25.43;43.79;;
81493;Laerm;70900;51.798;10.954;2024-02-21T02:26:35;29.34;25.60;36.29;;
81493;Laerm;70900;51.798;10.954;2024-02-21T02:29:01;33.86;25.60;51.22;;
81493;Laerm;70900;51.798;10.954;2024-02-21T02:31:27;32.86;27.73;43.44;;
81493;Laerm;70900;51.798;10.954;2024-02-21T02:33:52;36.71;27.00;48.11;;
81493;Laerm;70900;51.798;10.954;2024-02-21T02:36:18;32.68;26.04;43.28;;
81493;Laerm;70900;51.798;10.954;2024-02-21T02:38:43;32.79;26.93;40.22;;
81493;Laerm;70900;51.798;10.954;2024-02-21T02:41:08;29.73;26.36;36.26;;
81493;Laerm;70900;51.798;10.954;2024-02-21T02:43:34;35.05;27.80;50.15;;
81493;Laerm;70900;51.798;10.954;2024-02-21T02:45:59;32.14;27.85;44.10;;
81493;Laerm;70900;51.798;10.954;2024-02-21T02:48:24;36.43;27.89;46.48;;
81493;Laerm;70900;51.798;10.954;2024-02-21T02:50:50;37.83;30.15;46.51;;
81493;Laerm;70900;51.798;10.954;2024-02-21T02:53:15;38.08;31.44;50.15;;
81493;Laerm;70900;51.798;10.954;2024-02-21T02:55:40;37.57;29.27;48.62;;
81493;Laerm;70900;51.798;10.954;2024-02-21T02:58:06;55.20;31.37;74.43;;
81493;Laerm;70900;51.798;10.954;2024-02-21T03:00:31;35.07;29.60;46.43;;
81493;Laerm;70900;51.798;10.954;2024-02-21T03:03:01;33.66;27.22;43.56;;
81493;Laerm;70900;51.798;10.954;2024-02-21T03:05:29;36.42;28.75;57.11;;
81493;Laerm;70900;51.798;10.954;2024-02-21T03:07:54;31.74;26.36;41.24;;
81493;Laerm;70900;51.798;10.954;2024-02-21T03:10:20;30.79;26.73;38.16;;
81493;Laerm;70900;51.798;10.954;2024-02-21T03:12:46;31.21;27.77;49.39;;
81493;Laerm;70900;51.798;10.954;2024-02-21T03:15:11;34.23;27.84;43.43;;
81493;Laerm;70900;51.798;10.954;2024-02-21T03:17:37;50.88;27.49;67.79;;
81493;Laerm;70900;51.798;10.954;2024-02-21T03:20:03;30.83;26.97;41.62;;
81493;Laerm;70900;51.798;10.954;2024-02-21T03:22:33;31.61;28.05;36.01;;
81493;Laerm;70900;51.798;10.954;2024-02-21T03:24:59;30.54;26.00;44.23;;
81493;Laerm;70900;51.798;10.954;2024-02-21T03:27:24;32.33;27.36;39.03;;
81493;Laerm;70900;51.798;10.954;2024-02-21T03:29:49;34.36;28.70;40.54;;
81493;Laerm;70900;51.798;10.954;2024-02-21T03:32:15;48.00;31.68;62.83;;
81493;Laerm;70900;51.798;10.954;2024-02-21T03:34:40;34.29;29.64;40.89;;
81493;Laerm;70900;51.798;10.954;2024-02-21T03:37:05;36.45;28.44;53.02;;
81493;Laerm;70900;51.798;10.954;2024-02-21T03:39:31;32.07;26.57;48.58;;
81493;Laerm;70900;51.798;10.954;2024-02-21T03:41:57;31.52;28.29;39.87;;
81493;Laerm;70900;51.798;10.954;2024-02-21T03:44:23;31.32;27.30;46.29;;
81493;Laerm;70900;51.798;10.954;2024-02-21T03:46:48;32.81;27.08;56.07;;
81493;Laerm;70900;51.798;10.954;2024-02-21T03:49:13;32.77;28.81;41.90;;
81493;Laerm;70900;51.798;10.954;2024-02-21T03:51:39;34.19;30.20;43.51;;
81493;Laerm;70900;51.798;10.954;2024-02-21T03:54:04;36.47;31.60;51.41;;
81493;Laerm;70900;51.798;10.954;2024-02-21T03:56:30;35.02;30.25;47.75;;
81493;Laerm;70900;51.798;10.954;2024-02-21T03:58:55;39.80;33.45;52.39;;
81493;Laerm;70900;51.798;10.954;2024-02-21T04:01:20;39.36;31.20;46.16;;
81493;Laerm;70900;51.798;10.954;2024-02-21T04:03:46;37.77;32.82;43.78;;
81493;Laerm;70900;51.798;10.954;2024-02-21T04:06:11;38.55;34.12;51.65;;
81493;Laerm;70900;51.798;10.954;2024-02-21T04:08:37;40.68;34.53;50.30;;
81493;Laerm;70900;51.798;10.954;2024-02-21T04:11:02;38.22;32.64;47.17;;
81493;Laerm;70900;51.798;10.954;2024-02-21T04:13:28;46.34;33.60;67.84;;
81493;Laerm;70900;51.798;10.954;2024-02-21T04:15:53;42.31;33.72;60.48;;
81493;Laerm;70900;51.798;10.954;2024-02-21T04:18:19;40.25;34.09;51.03;;
81493;Laerm;70900;51.798;10.954;2024-02-21T04:20:44;38.98;32.03;64.00;;
81493;Laerm;70900;51.798;10.954;2024-02-21T04:23:10;54.98;34.19;71.88;;
81493;Laerm;70900;51.798;10.954;2024-02-21T04:25:35;43.11;31.24;62.57;;
81493;Laerm;70900;51.798;10.954;2024-02-21T04:28:01;39.76;34.45;51.68;;
81493;Laerm;70900;51.798;10.954;2024-02-21T04:30:26;54.98;36.84;68.32;;
81493;Laerm;70900;51.798;10.954;2024-02-21T04:32:51;39.13;34.31;52.14;;
81493;Laerm;70900;51.798;10.954;2024-02-21T04:35:17;38.74;33.72;59.70;;
81493;Laerm;70900;51.798;10.954;2024-02-21T04:37:42;47.10;34.74;62.41;;
81493;Laerm;70900;51.798;10.954;2024-02-21T04:40:08;47.12;36.89;62.26;;
81493;Laerm;70900;51.798;10.954;2024-02-21T04:42:34;49.12;35.72;64.29;;
81493;Laerm;70900;51.798;10.954;2024-02-21T04:44:59;40.81;36.69;50.03;;
81493;Laerm;70900;51.798;10.954;2024-02-21T04:47:25;49.02;37.62;64.30;;
81493;Laerm;70900;51.798;10.954;2024-02-21T04:49:50;43.14;37.85;52.88;;
81493;Laerm;70900;51.798;10.954;2024-02-21T04:52:15;50.94;37.48;63.21;;
81493;Laerm;70900;51.798;10.954;2024-02-21T04:54:41;53.17;36.90;69.66;;
81493;Laerm;70900;51.798;10.954;2024-02-21T04:57:06;52.98;36.64;66.59;;
81493;Laerm;70900;51.798;10.954;2024-02-21T04:59:32;51.83;38.10;76.84;;
81493;Laerm;70900;51.798;10.954;2024-02-21T05:01:57;44.90;36.54;55.79;;
81493;Laerm;70900;51.798;10.954;2024-02-21T05:04:24;44.19;38.64;59.71;;
81493;Laerm;70900;51.798;10.954;2024-02-21T05:06:49;49.37;39.66;64.10;;
81493;Laerm;70900;51.798;10.954;2024-02-21T05:09:14;44.57;39.24;53.69;;
81493;Laerm;70900;51.798;10.954;2024-02-21T05:11:40;48.98;38.41;64.29;;
81493;Laerm;70900;51.798;10.954;2024-02-21T05:14:05;51.59;39.28;65.27;;
81493;Laerm;70900;51.798;10.954;2024-02-21T05:16:32;53.36;41.02;64.97;;
81493;Laerm;70900;51.798;10.954;2024-02-21T05:18:57;46.29;41.11;59.79;;
81493;Laerm;70900;51.798;10.954;2024-02-21T05:21:23;50.42;39.56;72.17;;
81493;Laerm;70900;51.798;10.954;2024-02-21T05:23:49;48.88;41.32;61.58;;
81493;Laerm;70900;51.798;10.954;2024-02-21T05:26:20;53.40;42.13;65.19;;
81493;Laerm;70900;51.798;10.954;2024-02-21T05:28:46;56.87;41.02;69.47;;
81493;Laerm;70900;51.798;10.954;2024-02-21T05:31:12;54.70;42.40;67.09;;
81493;Laerm;70900;51.798;10.954;2024-02-21T05:33:37;52.63;41.75;68.05;;
81493;Laerm;70900;51.798;10.954;2024-02-21T05:36:02;55.18;43.36;66.96;;
81493;Laerm;70900;51.798;10.954;2024-02-21T05:38:28;55.29;41.79;67.31;;
81493;Laerm;70900;51.798;10.954;2024-02-21T05:40:53;53.77;43.22;68.86;;
81493;Laerm;70900;51.798;10.954;2024-02-21T05:43:19;53.49;41.44;66.19;;
81493;Laerm;70900;51.798;10.954;2024-02-21T05:45:44;58.84;43.26;76.25;;
81493;Laerm;70900;51.798;10.954;2024-02-21T05:48:09;54.14;43.14;68.85;;
81493;Laerm;70900;51.798;10.954;2024-02-21T05:50:35;56.97;42.76;67.28;;
81493;Laerm;70900;51.798;10.954;2024-02-21T05:53:00;56.44;42.37;70.39;;
81493;Laerm;70900;51.798;10.954;2024-02-21T05:55:25;58.53;44.13;74.26;;
81493;Laerm;70900;51.798;10.954;2024-02-21T05:57:53;53.85;42.01;68.03;;
81493;Laerm;70900;51.798;10.954;2024-02-21T06:00:18;50.08;39.41;64.57;;
81493;Laerm;70900;51.798;10.954;2024-02-21T06:02:44;50.46;38.15;63.45;;
81493;Laerm;70900;51.798;10.954;2024-02-21T06:05:09;56.43;37.70;69.62;;
81493;Laerm;70900;51.798;10.954;2024-02-21T06:07:35;55.59;38.34;69.18;;
81493;Laerm;70900;51.798;10.954;2024-02-21T06:10:03;56.68;38.35;70.29;;
81493;Laerm;70900;51.798;10.954;2024-02-21T06:12:28;59.95;39.94;77.60;;
81493;Laerm;70900;51.798;10.954;2024-02-21T06:14:54;59.45;40.75;73.17;;
81493;Laerm;70900;51.798;10.954;2024-02-21T06:17:19;56.17;41.01;67.07;;
81493;Laerm;70900;51.798;10.954;2024-02-21T06:19:45;46.97;38.24;61.14;;
81493;Laerm;70900;51.798;10.954;2024-02-21T06:22:10;61.62;42.18;77.77;;
81493;Laerm;70900;51.798;10.954;2024-02-21T06:24:36;59.85;41.22;71.16;;
81493;Laerm;70900;51.798;10.954;2024-02-21T06:27:03;57.00;41.22;67.60;;
81493;Laerm;70900;51.798;10.954;2024-02-21T06:29:28;51.54;39.17;68.00;;
81493;Laerm;70900;51.798;10.954;2024-02-21T06:31:53;53.31;38.49;65.36;;
81493;Laerm;70900;51.798;10.954;2024-02-21T06:34:19;60.90;39.79;74.79;;
81493;Laerm;70900;51.798;10.954;2024-02-21T06:36:44;54.32;39.34;66.45;;
81493;Laerm;70900;51.798;10.954;2024-02-21T06:39:10;63.24;43.16;79.86;;
81493;Laerm;70900;51.798;10.954;2024-02-21T06:41:36;52.17;38.27;67.95;;
81493;Laerm;70900;51.798;10.954;2024-02-21T06:44:02;56.74;39.13;73.11;;
81493;Laerm;70900;51.798;10.954;2024-02-21T06:46:28;53.61;39.25;72.02;;
81493;Laerm;70900;51.798;10.954;2024-02-21T06:48:54;59.26;39.59;72.60;;
81493;Laerm;70900;51.798;10.954;2024-02-21T06:51:21;54.25;41.06;68.19;;
81493;Laerm;70900;51.798;10.954;2024-02-21T06:53:47;57.89;41.31;68.94;;
81493;Laerm;70900;51.798;10.954;2024-02-21T06:56:12;53.84;39.44;66.49;;
81493;Laerm;70900;51.798;10.954;2024-02-21T06:58:37;59.00;39.70;76.17;;
81493;Laerm;70900;51.798;10.954;2024-02-21T07:01:03;55.67;37.69;70.01;;
81493;Laerm;70900;51.798;10.954;2024-02-21T07:03:28;57.81;40.25;78.01;;
81493;Laerm;70900;51.798;10.954;2024-02-21T07:05:54;50.62;40.79;64.97;;
81493;Laerm;70900;51.798;10.954;2024-02-21T07:08:19;47.22;39.94;58.51;;
81493;Laerm;70900;51.798;10.954;2024-02-21T07:10:44;54.83;39.73;67.94;;
81493;Laerm;70900;51.798;10.954;2024-02-21T07:13:09;57.21;40.29;70.22;;
81493;Laerm;70900;51.798;10.954;2024-02-21T07:15:35;58.27;39.44;69.15;;
81493;Laerm;70900;51.798;10.954;2024-02-21T07:18:01;54.28;37.56;69.00;;
81493;Laerm;70900;51.798;10.954;2024-02-21T07:20:26;52.94;37.77;67.66;;
81493;Laerm;70900;51.798;10.954;2024-02-21T07:22:52;53.97;38.28;69.42;;
81493;Laerm;70900;51.798;10.954;2024-02-21T07:25:17;51.09;37.38;67.56;;
81493;Laerm;70900;51.798;10.954;2024-02-21T07:27:43;54.23;37.89;70.92;;
81493;Laerm;70900;51.798;10.954;2024-02-21T07:30:09;51.44;38.24;67.68;;
81493;Laerm;70900;51.798;10.954;2024-02-21T07:32:34;50.68;38.29;64.92;;
81493;Laerm;70900;51.798;10.954;2024-02-21T07:35:00;59.27;38.76;74.58;;
81493;Laerm;70900;51.798;10.954;2024-02-21T07:37:25;53.54;38.64;72.74;;
81493;Laerm;70900;51.798;10.954;2024-02-21T07:39:51;62.41;38.23;79.66;;
81493;Laerm;70900;51.798;10.954;2024-02-21T07:42:16;55.19;38.14;69.25;;
81493;Laerm;70900;51.798;10.954;2024-02-21T07:44:41;56.68;38.92;72.74;;
81493;Laerm;70900;51.798;10.954;2024-02-21T07:47:07;53.64;40.86;65.79;;
81493;Laerm;70900;51.798;10.954;2024-02-21T07:49:32;58.87;40.06;70.11;;
81493;Laerm;70900;51.798;10.954;2024-02-21T07:52:00;57.43;39.10;70.89;;
81493;Laerm;70900;51.798;10.954;2024-02-21T07:54:25;60.17;40.53;74.12;;
81493;Laerm;70900;51.798;10.954;2024-02-21T07:56:50;54.05;40.77;67.05;;
81493;Laerm;70900;51.798;10.954;2024-02-21T07:59:16;57.75;41.58;71.69;;
81493;Laerm;70900;51.798;10.954;2024-02-21T08:01:41;55.42;41.34;68.24;;
81493;Laerm;70900;51.798;10.954;2024-02-21T08:04:07;53.64;39.94;67.06;;
81493;Laerm;70900;51.798;10.954;2024-02-21T08:06:32;52.26;39.90;68.40;;
81493;Laerm;70900;51.798;10.954;2024-02-21T08:08:58;54.97;39.58;68.46;;
81493;Laerm;70900;51.798;10.954;2024-02-21T08:11:25;51.00;39.08;65.46;;
81493;Laerm;70900;51.798;10.954;2024-02-21T08:13:50;57.55;41.57;69.22;;
81493;Laerm;70900;51.798;10.954;2024-02-21T08:16:16;59.51;40.52;75.15;;
81493;Laerm;70900;51.798;10.954;2024-02-21T08:18:43;53.84;37.76;68.39;;
81493;Laerm;70900;51.798;10.954;2024-02-21T08:21:09;55.22;39.64;68.87;;
81493;Laerm;70900;51.798;10.954;2024-02-21T08:23:34;59.96;41.39;76.39;;
81493;Laerm;70900;51.798;10.954;2024-02-21T08:25:59;53.72;40.41;65.89;;
81493;Laerm;70900;51.798;10.954;2024-02-21T08:28:27;51.90;38.46;68.66;;
81493;Laerm;70900;51.798;10.954;2024-02-21T08:30:53;54.46;36.77;68.95;;
81493;Laerm;70900;51.798;10.954;2024-02-21T08:33:18;50.73;38.15;68.63;;
81493;Laerm;70900;51.798;10.954;2024-02-21T08:35:44;58.69;39.42;76.05;;
81493;Laerm;70900;51.798;10.954;2024-02-21T08:38:09;46.68;37.60;68.69;;
81493;Laerm;70900;51.798;10.954;2024-02-21T08:40:34;53.59;39.52;67.74;;
81493;Laerm;70900;51.798;10.954;2024-02-21T08:43:00;61.69;42.89;79.01;;
81493;Laerm;70900;51.798;10.954;2024-02-21T08:45:26;52.55;38.97;66.61;;
81493;Laerm;70900;51.798;10.954;2024-02-21T08:47:51;53.95;40.45;68.59;;
81493;Laerm;70900;51.798;10.954;2024-02-21T08:50:16;55.20;40.01;65.50;;
81493;Laerm;70900;51.798;10.954;2024-02-21T08:52:41;61.43;44.77;74.66;;
81493;Laerm;70900;51.798;10.954;2024-02-21T08:55:07;60.67;42.87;79.49;;
81493;Laerm;70900;51.798;10.954;2024-02-21T08:57:33;57.77;37.62;73.85;;
81493;Laerm;70900;51.798;10.954;2024-02-21T09:00:04;63.83;38.30;80.05;;
81493;Laerm;70900;51.798;10.954;2024-02-21T09:02:39;52.70;38.70;66.90;;
81493;Laerm;70900;51.798;10.954;2024-02-21T09:05:05;50.94;38.99;68.61;;
81493;Laerm;70900;51.798;10.954;2024-02-21T09:07:30;56.42;39.95;69.46;;
81493;Laerm;70900;51.798;10.954;2024-02-21T09:09:56;54.15;37.25;67.82;;
81493;Laerm;70900;51.798;10.954;2024-02-21T09:12:21;56.95;37.70;71.56;;
81493;Laerm;70900;51.798;10.954;2024-02-21T09:14:47;46.44;37.91;60.25;;
81493;Laerm;70900;51.798;10.954;2024-02-21T09:17:16;48.10;38.41;61.77;;
81493;Laerm;70900;51.798;10.954;2024-02-21T09:19:42;56.07;40.28;69.04;;
81493;Laerm;70900;51.798;10.954;2024-02-21T09:22:08;55.85;38.43;69.20;;
81493;Laerm;70900;51.798;10.954;2024-02-21T09:24:33;50.25;38.47;70.11;;
81493;Laerm;70900;51.798;10.954;2024-02-21T09:26:59;51.80;37.30;67.87;;
81493;Laerm;70900;51.798;10.954;2024-02-21T09:29:25;56.97;39.49;69.35;;
81493;Laerm;70900;51.798;10.954;2024-02-21T09:31:50;56.34;38.86;66.73;;
81493;Laerm;70900;51.798;10.954;2024-02-21T09:34:16;58.04;39.91;73.05;;
81493;Laerm;70900;51.798;10.954;2024-02-21T09:36:41;57.88;38.16;70.19;;
81493;Laerm;70900;51.798;10.954;2024-02-21T09:39:07;55.20;38.46;68.04;;
81493;Laerm;70900;51.798;10.954;2024-02-21T09:41:32;50.02;38.07;65.73;;
81493;Laerm;70900;51.798;10.954;2024-02-21T09:44:01;55.50;37.81;67.22;;
81493;Laerm;70900;51.798;10.954;2024-02-21T09:46:35;57.64;39.08;73.76;;
81493;Laerm;70900;51.798;10.954;2024-02-21T09:49:13;53.44;39.04;66.28;;
81493;Laerm;70900;51.798;10.954;2024-02-21T09:51:45;49.82;37.76;64.78;;
81493;Laerm;70900;51.798;10.954;2024-02-21T09:54:12;55.86;39.93;69.84;;
81493;Laerm;70900;51.798;10.954;2024-02-21T09:56:38;59.76;41.68;72.01;;
81493;Laerm;70900;51.798;10.954;2024-02-21T09:59:03;58.04;38.86;68.80;;
81493;Laerm;70900;51.798;10.954;2024-02-21T10:01:30;52.70;38.84;66.89;;
81493;Laerm;70900;51.798;10.954;2024-02-21T10:03:57;52.63;38.05;67.30;;
81493;Laerm;70900;51.798;10.954;2024-02-21T10:06:22;56.16;38.04;70.90;;
81493;Laerm;70900;51.798;10.954;2024-02-21T10:08:53;57.29;39.81;69.33;;
81493;Laerm;70900;51.798;10.954;2024-02-21T10:11:25;53.41;38.39;68.24;;
81493;Laerm;70900;51.798;10.954;2024-02-21T10:13:51;55.09;38.95;70.80;;
81493;Laerm;70900;51.798;10.954;2024-02-21T10:16:16;56.07;40.89;69.02;;
81493;Laerm;70900;51.798;10.954;2024-02-21T10:18:42;54.69;40.53;67.80;;
81493;Laerm;70900;51.798;10.954;2024-02-21T10:21:07;55.73;40.70;69.89;;
81493;Laerm;70900;51.798;10.954;2024-02-21T10:23:42;61.47;39.80;79.09;;
81493;Laerm;70900;51.798;10.954;2024-02-21T10:26:08;58.82;39.59;73.48;;
81493;Laerm;70900;51.798;10.954;2024-02-21T10:28:34;53.84;37.69;65.09;;
81493;Laerm;70900;51.798;10.954;2024-02-21T10:30:59;56.14;38.67;69.22;;
81493;Laerm;70900;51.798;10.954;2024-02-21T10:33:24;57.29;38.84;77.44;;
81493;Laerm;70900;51.798;10.954;2024-02-21T10:35:53;61.90;37.61;77.85;;
81493;Laerm;70900;51.798;10.954;2024-02-21T10:38:18;58.90;38.86;80.18;;
81493;Laerm;70900;51.798;10.954;2024-02-21T10:40:43;62.01;38.68;81.19;;
81493;Laerm;70900;51.798;10.954;2024-02-21T10:43:12;59.29;36.48;77.81;;
81493;Laerm;70900;51.798;10.954;2024-02-21T10:45:37;51.49;38.01;66.75;;
81493;Laerm;70900;51.798;10.954;2024-02-21T10:50:36;53.96;36.97;70.39;;
81493;Laerm;70900;51.798;10.954;2024-02-21T10:53:08;53.85;38.75;65.75;;
81493;Laerm;70900;51.798;10.954;2024-02-21T10:55:38;58.57;39.54;71.14;;
81493;Laerm;70900;51.798;10.954;2024-02-21T10:58:06;54.34;37.47;67.37;;
81493;Laerm;70900;51.798;10.954;2024-02-21T11:00:33;51.18;37.68;66.08;;
81493;Laerm;70900;51.798;10.954;2024-02-21T11:02:58;52.72;37.11;68.51;;
81493;Laerm;70900;51.798;10.954;2024-02-21T11:05:25;59.08;39.77;77.81;;
81493;Laerm;70900;51.798;10.954;2024-02-21T11:07:53;66.62;38.81;86.89;;
81493;Laerm;70900;51.798;10.954;2024-02-21T11:10:24;55.52;38.76;72.33;;
81493;Laerm;70900;51.798;10.954;2024-02-21T11:12:53;54.83;37.98;68.32;;
81493;Laerm;70900;51.798;10.954;2024-02-21T11:15:24;54.44;36.27;76.13;;
81493;Laerm;70900;51.798;10.954;2024-02-21T11:17:55;40.85;36.18;55.34;;
81493;Laerm;70900;51.798;10.954;2024-02-21T11:20:21;54.37;38.69;67.92;;
81493;Laerm;70900;51.798;10.954;2024-02-21T11:22:56;55.57;39.78;68.87;;
81493;Laerm;70900;51.798;10.954;2024-02-21T11:25:22;57.89;41.04;74.61;;
81493;Laerm;70900;51.798;10.954;2024-02-21T11:27:47;62.85;40.13;86.80;;
81493;Laerm;70900;51.798;10.954;2024-02-21T11:30:12;55.43;38.44;69.15;;
81493;Laerm;70900;51.798;10.954;2024-02-21T11:32:39;55.02;37.98;69.28;;
81493;Laerm;70900;51.798;10.954;2024-02-21T11:35:05;56.67;37.35;68.94;;
81493;Laerm;70900;51.798;10.954;2024-02-21T11:37:31;54.90;38.50;68.25;;
81493;Laerm;70900;51.798;10.954;2024-02-21T11:40:02;57.48;39.14;70.27;;
81493;Laerm;70900;51.798;10.954;2024-02-21T11:42:28;41.11;36.32;61.07;;
81493;Laerm;70900;51.798;10.954;2024-02-21T11:44:54;60.76;36.20;77.19;;
81493;Laerm;70900;51.798;10.954;2024-02-21T11:47:23;54.25;36.61;71.85;;
81493;Laerm;70900;51.798;10.954;2024-02-21T11:49:48;59.52;40.46;71.86;;
81493;Laerm;70900;51.798;10.954;2024-02-21T11:52:15;59.25;37.71;76.80;;
81493;Laerm;70900;51.798;10.954;2024-02-21T11:54:41;50.16;37.57;69.57;;
81493;Laerm;70900;51.798;10.954;2024-02-21T11:57:07;59.64;36.15;76.37;;
81493;Laerm;70900;51.798;10.954;2024-02-21T11:59:33;52.50;36.95;66.75;;
81493;Laerm;70900;51.798;10.954;2024-02-21T12:01:59;54.80;38.63;68.30;;
81493;Laerm;70900;51.798;10.954;2024-02-21T12:04:24;53.69;37.33;66.81;;
81493;Laerm;70900;51.798;10.954;2024-02-21T12:06:50;56.51;38.59;70.07;;
81493;Laerm;70900;51.798;10.954;2024-02-21T12:09:17;50.23;36.42;64.66;;
81493;Laerm;70900;51.798;10.954;2024-02-21T12:11:43;63.16;39.29;81.31;;
81493;Laerm;70900;51.798;10.954;2024-02-21T12:14:08;50.56;38.02;63.87;;
81493;Laerm;70900;51.798;10.954;2024-02-21T12:16:34;53.50;40.54;66.68;;
81493;Laerm;70900;51.798;10.954;2024-02-21T12:19:00;56.40;38.33;68.02;;
81493;Laerm;70900;51.798;10.954;2024-02-21T12:21:26;57.71;40.94;69.89;;
81493;Laerm;70900;51.798;10.954;2024-02-21T12:23:54;55.40;39.56;65.99;;
81493;Laerm;70900;51.798;10.954;2024-02-21T12:26:19;62.58;40.12;77.72;;
81493;Laerm;70900;51.798;10.954;2024-02-21T12:28:45;55.95;38.04;70.11;;
81493;Laerm;70900;51.798;10.954;2024-02-21T12:31:10;52.98;37.20;73.88;;
81493;Laerm;70900;51.798;10.954;2024-02-21T12:33:35;59.59;39.32;75.64;;
81493;Laerm;70900;51.798;10.954;2024-02-21T12:36:01;58.41;36.88;72.10;;
81493;Laerm;70900;51.798;10.954;2024-02-21T12:38:26;56.59;38.99;68.94;;
81493;Laerm;70900;51.798;10.954;2024-02-21T12:40:52;42.95;38.09;54.44;;
81493;Laerm;70900;51.798;10.954;2024-02-21T12:43:17;55.35;37.80;68.05;;
81493;Laerm;70900;51.798;10.954;2024-02-21T12:45:43;51.72;37.49;66.28;;
81493;Laerm;70900;51.798;10.954;2024-02-21T12:48:08;52.44;38.14;65.19;;
81493;Laerm;70900;51.798;10.954;2024-02-21T12:50:34;56.02;39.11;69.98;;
81493;Laerm;70900;51.798;10.954;2024-02-21T12:52:59;56.36;38.81;73.43;;
81493;Laerm;70900;51.798;10.954;2024-02-21T12:55:25;57.23;38.88;70.70;;
81493;Laerm;70900;51.798;10.954;2024-02-21T12:57:50;54.78;36.41;66.49;;
81493;Laerm;70900;51.798;10.954;2024-02-21T13:00:16;49.82;37.42;64.75;;
81493;Laerm;70900;51.798;10.954;2024-02-21T13:02:41;55.73;37.54;71.29;;
81493;Laerm;70900;51.798;10.954;2024-02-21T13:05:07;52.44;35.66;68.08;;
81493;Laerm;70900;51.798;10.954;2024-02-21T13:07:33;53.05;35.74;66.91;;
81493;Laerm;70900;51.798;10.954;2024-02-21T13:09:58;40.84;37.13;54.76;;
81493;Laerm;70900;51.798;10.954;2024-02-21T13:12:24;51.44;36.59;72.80;;
81493;Laerm;70900;51.798;10.954;2024-02-21T13:14:51;54.59;36.23;67.84;;
81493;Laerm;70900;51.798;10.954;2024-02-21T13:17:16;46.07;36.22;60.97;;
81493;Laerm;70900;51.798;10.954;2024-02-21T13:19:42;52.71;36.64;67.81;;
81493;Laerm;70900;51.798;10.954;2024-02-21T13:22:07;53.08;37.00;66.27;;
81493;Laerm;70900;51.798;10.954;2024-02-21T13:24:32;55.53;37.91;70.51;;
81493;Laerm;70900;51.798;10.954;2024-02-21T13:26:58;53.68;36.71;67.50;;